sensor_id;sensor_type;location;lat;lon;timestamp;temperature;humidity
23259;DHT22;11798;51.528;7.240;2023-10-19T00:00:46;11.70;99.90
23259;DHT22;11798;51.528;7.240;2023-10-19T00:03:14;11.80;99.90
23259;DHT22;11798;51.528;7.240;2023-10-19T00:05:40;11.80;99.90
23259;DHT22;11798;51.528;7.240;2023-10-19T00:08:10;11.80;99.90
23259;DHT22;11798;51.528;7.240;2023-10-19T00:10:46;11.90;99.90
23259;DHT22;11798;51.528;7.240;2023-10-19T00:13:34;11.80;99.90
23259;DHT22;11798;51.528;7.240;2023-10-19T00:16:08;11.90;99.90
23259;DHT22;11798;51.528;7.240;2023-10-19T00:18:42;11.90;99.90
23259;DHT22;11798;51.528;7.240;2023-10-19T00:21:08;11.90;99.90
23259;DHT22;11798;51.528;7.240;2023-10-19T00:23:45;11.90;99.90
23259;DHT22;11798;51.528;7.240;2023-10-19T00:26:12;12.00;99.90
23259;DHT22;11798;51.528;7.240;2023-10-19T00:28:45;12.00;99.90
23259;DHT22;11798;51.528;7.240;2023-10-19T00:31:13;12.00;99.90
23259;DHT22;11798;51.528;7.240;2023-10-19T00:33:39;12.10;99.90
23259;DHT22;11798;51.528;7.240;2023-10-19T00:36:08;12.10;99.90
23259;DHT22;11798;51.528;7.240;2023-10-19T00:38:37;12.10;99.90
23259;DHT22;11798;51.528;7.240;2023-10-19T00:41:07;12.10;99.90
23259;DHT22;11798;51.528;7.240;2023-10-19T00:43:36;12.10;99.90
23259;DHT22;11798;51.528;7.240;2023-10-19T00:46:03;12.20;99.90
23259;DHT22;11798;51.528;7.240;2023-10-19T00:48:31;12.20;99.90
23259;DHT22;11798;51.528;7.240;2023-10-19T00:51:00;12.20;99.90
23259;DHT22;11798;51.528;7.240;2023-10-19T00:53:35;12.30;99.90
23259;DHT22;11798;51.528;7.240;2023-10-19T00:56:02;12.30;99.90
23259;DHT22;11798;51.528;7.240;2023-10-19T00:58:30;12.30;99.90
23259;DHT22;11798;51.528;7.240;2023-10-19T01:00:56;12.30;99.90
23259;DHT22;11798;51.528;7.240;2023-10-19T01:03:25;12.30;99.90
23259;DHT22;11798;51.528;7.240;2023-10-19T01:05:57;12.30;99.90
23259;DHT22;11798;51.528;7.240;2023-10-19T01:08:23;12.40;99.90
23259;DHT22;11798;51.528;7.240;2023-10-19T01:10:50;12.50;99.90
23259;DHT22;11798;51.528;7.240;2023-10-19T01:13:18;12.40;99.90
23259;DHT22;11798;51.528;7.240;2023-10-19T01:15:44;12.40;99.90
23259;DHT22;11798;51.528;7.240;2023-10-19T01:18:14;12.40;99.90
23259;DHT22;11798;51.528;7.240;2023-10-19T01:20:42;12.50;99.90
23259;DHT22;11798;51.528;7.240;2023-10-19T01:23:16;12.50;99.90
23259;DHT22;11798;51.528;7.240;2023-10-19T01:25:52;12.50;99.90
23259;DHT22;11798;51.528;7.240;2023-10-19T01:28:22;12.50;99.90
23259;DHT22;11798;51.528;7.240;2023-10-19T01:30:51;12.50;99.90
23259;DHT22;11798;51.528;7.240;2023-10-19T01:33:19;12.50;99.90
23259;DHT22;11798;51.528;7.240;2023-10-19T01:35:45;12.50;99.90
23259;DHT22;11798;51.528;7.240;2023-10-19T01:38:30;12.60;99.90
23259;DHT22;11798;51.528;7.240;2023-10-19T01:40:59;12.60;99.90
23259;DHT22;11798;51.528;7.240;2023-10-19T01:43:25;12.60;99.90
23259;DHT22;11798;51.528;7.240;2023-10-19T01:45:54;12.60;99.90
23259;DHT22;11798;51.528;7.240;2023-10-19T01:48:22;12.60;99.90
23259;DHT22;11798;51.528;7.240;2023-10-19T01:50:59;12.60;99.90
23259;DHT22;11798;51.528;7.240;2023-10-19T01:53:25;12.70;99.90
23259;DHT22;11798;51.528;7.240;2023-10-19T01:55:50;12.70;99.90
23259;DHT22;11798;51.528;7.240;2023-10-19T01:58:23;12.80;99.90
23259;DHT22;11798;51.528;7.240;2023-10-19T02:00:50;12.80;99.90
23259;DHT22;11798;51.528;7.240;2023-10-19T02:03:19;12.80;99.90
23259;DHT22;11798;51.528;7.240;2023-10-19T02:05:47;12.80;99.90
23259;DHT22;11798;51.528;7.240;2023-10-19T02:08:15;12.80;99.90
23259;DHT22;11798;51.528;7.240;2023-10-19T02:10:45;12.90;99.90
23259;DHT22;11798;51.528;7.240;2023-10-19T02:13:11;12.90;99.90
23259;DHT22;11798;51.528;7.240;2023-10-19T02:15:39;12.90;99.90
23259;DHT22;11798;51.528;7.240;2023-10-19T02:18:05;13.00;99.90
23259;DHT22;11798;51.528;7.240;2023-10-19T02:20:30;13.00;99.90
23259;DHT22;11798;51.528;7.240;2023-10-19T02:22:57;13.00;99.90
23259;DHT22;11798;51.528;7.240;2023-10-19T02:25:24;13.00;99.90
23259;DHT22;11798;51.528;7.240;2023-10-19T02:27:54;13.10;99.90
23259;DHT22;11798;51.528;7.240;2023-10-19T02:30:19;13.20;99.90
23259;DHT22;11798;51.528;7.240;2023-10-19T02:32:45;13.20;99.90
23259;DHT22;11798;51.528;7.240;2023-10-19T02:35:13;13.20;99.90
23259;DHT22;11798;51.528;7.240;2023-10-19T02:37:40;13.20;99.90
23259;DHT22;11798;51.528;7.240;2023-10-19T02:40:06;13.30;99.90
23259;DHT22;11798;51.528;7.240;2023-10-19T02:42:38;13.30;99.90
23259;DHT22;11798;51.528;7.240;2023-10-19T02:45:04;13.40;99.90
23259;DHT22;11798;51.528;7.240;2023-10-19T02:47:30;13.40;99.90
23259;DHT22;11798;51.528;7.240;2023-10-19T02:49:56;13.40;99.90
23259;DHT22;11798;51.528;7.240;2023-10-19T02:52:23;13.40;99.90
23259;DHT22;11798;51.528;7.240;2023-10-19T02:54:48;13.40;99.90
23259;DHT22;11798;51.528;7.240;2023-10-19T02:57:14;13.40;99.90
23259;DHT22;11798;51.528;7.240;2023-10-19T02:59:40;13.40;99.90
23259;DHT22;11798;51.528;7.240;2023-10-19T03:02:06;13.50;99.90
23259;DHT22;11798;51.528;7.240;2023-10-19T03:04:34;13.50;99.90
23259;DHT22;11798;51.528;7.240;2023-10-19T03:07:04;13.50;99.90
23259;DHT22;11798;51.528;7.240;2023-10-19T03:09:29;13.50;99.90
23259;DHT22;11798;51.528;7.240;2023-10-19T03:11:56;13.50;99.90
23259;DHT22;11798;51.528;7.240;2023-10-19T03:14:25;13.50;99.90
23259;DHT22;11798;51.528;7.240;2023-10-19T03:16:52;13.50;99.90
23259;DHT22;11798;51.528;7.240;2023-10-19T03:19:20;13.50;99.90
23259;DHT22;11798;51.528;7.240;2023-10-19T03:21:45;13.50;99.90
23259;DHT22;11798;51.528;7.240;2023-10-19T03:26:42;13.60;99.90
23259;DHT22;11798;51.528;7.240;2023-10-19T03:29:14;13.60;99.90
23259;DHT22;11798;51.528;7.240;2023-10-19T03:31:41;13.60;99.90
23259;DHT22;11798;51.528;7.240;2023-10-19T03:34:13;13.60;99.90
23259;DHT22;11798;51.528;7.240;2023-10-19T03:36:40;13.60;99.90
23259;DHT22;11798;51.528;7.240;2023-10-19T03:39:06;13.60;99.90
23259;DHT22;11798;51.528;7.240;2023-10-19T03:41:39;13.60;99.90
23259;DHT22;11798;51.528;7.240;2023-10-19T03:44:08;13.60;99.90
23259;DHT22;11798;51.528;7.240;2023-10-19T03:46:39;13.70;99.90
23259;DHT22;11798;51.528;7.240;2023-10-19T03:49:21;13.70;99.90
23259;DHT22;11798;51.528;7.240;2023-10-19T03:51:47;13.70;99.90
23259;DHT22;11798;51.528;7.240;2023-10-19T03:54:36;13.70;99.90
23259;DHT22;11798;51.528;7.240;2023-10-19T03:57:10;13.70;99.90
23259;DHT22;11798;51.528;7.240;2023-10-19T03:59:47;13.80;99.90
23259;DHT22;11798;51.528;7.240;2023-10-19T04:02:15;13.70;99.90
23259;DHT22;11798;51.528;7.240;2023-10-19T04:04:43;13.80;99.90
23259;DHT22;11798;51.528;7.240;2023-10-19T04:07:12;13.80;99.90
23259;DHT22;11798;51.528;7.240;2023-10-19T04:09:56;13.70;99.90
23259;DHT22;11798;51.528;7.240;2023-10-19T04:12:39;13.80;99.90
23259;DHT22;11798;51.528;7.240;2023-10-19T04:15:08;13.80;99.90
23259;DHT22;11798;51.528;7.240;2023-10-19T04:17:43;13.80;99.90
23259;DHT22;11798;51.528;7.240;2023-10-19T04:20:11;13.80;99.90
23259;DHT22;11798;51.528;7.240;2023-10-19T04:22:43;13.80;99.90
23259;DHT22;11798;51.528;7.240;2023-10-19T04:25:09;13.80;99.90
23259;DHT22;11798;51.528;7.240;2023-10-19T04:27:40;13.80;99.90
23259;DHT22;11798;51.528;7.240;2023-10-19T04:30:11;13.80;99.90
23259;DHT22;11798;51.528;7.240;2023-10-19T04:32:49;13.80;99.90
23259;DHT22;11798;51.528;7.240;2023-10-19T04:35:15;13.90;99.90
23259;DHT22;11798;51.528;7.240;2023-10-19T04:37:50;13.80;99.90
23259;DHT22;11798;51.528;7.240;2023-10-19T04:40:17;13.90;99.90
23259;DHT22;11798;51.528;7.240;2023-10-19T04:42:44;13.90;99.90
23259;DHT22;11798;51.528;7.240;2023-10-19T04:45:11;13.90;99.90
23259;DHT22;11798;51.528;7.240;2023-10-19T04:47:38;13.90;99.90
23259;DHT22;11798;51.528;7.240;2023-10-19T04:50:07;13.90;99.90
23259;DHT22;11798;51.528;7.240;2023-10-19T04:52:33;14.00;99.90
23259;DHT22;11798;51.528;7.240;2023-10-19T04:54:59;14.00;99.90
23259;DHT22;11798;51.528;7.240;2023-10-19T04:57:25;13.90;99.90
23259;DHT22;11798;51.528;7.240;2023-10-19T04:59:51;13.90;99.90
23259;DHT22;11798;51.528;7.240;2023-10-19T05:02:17;13.90;99.90
23259;DHT22;11798;51.528;7.240;2023-10-19T05:04:43;13.90;99.90
23259;DHT22;11798;51.528;7.240;2023-10-19T05:07:09;14.00;99.90
23259;DHT22;11798;51.528;7.240;2023-10-19T05:09:38;13.90;99.90
23259;DHT22;11798;51.528;7.240;2023-10-19T05:12:05;14.00;99.90
23259;DHT22;11798;51.528;7.240;2023-10-19T05:14:35;14.00;99.90
23259;DHT22;11798;51.528;7.240;2023-10-19T05:17:02;14.00;99.90
23259;DHT22;11798;51.528;7.240;2023-10-19T05:19:30;14.00;99.90
23259;DHT22;11798;51.528;7.240;2023-10-19T05:21:56;13.90;99.90
23259;DHT22;11798;51.528;7.240;2023-10-19T05:24:22;14.00;99.90
23259;DHT22;11798;51.528;7.240;2023-10-19T05:26:48;14.00;99.90
23259;DHT22;11798;51.528;7.240;2023-10-19T05:29:14;14.00;99.90
23259;DHT22;11798;51.528;7.240;2023-10-19T05:31:41;13.90;99.90
23259;DHT22;11798;51.528;7.240;2023-10-19T05:34:06;13.90;99.90
23259;DHT22;11798;51.528;7.240;2023-10-19T05:36:33;13.90;99.90
23259;DHT22;11798;51.528;7.240;2023-10-19T05:38:59;13.90;99.90
23259;DHT22;11798;51.528;7.240;2023-10-19T05:41:25;13.90;99.90
23259;DHT22;11798;51.528;7.240;2023-10-19T05:43:52;13.90;99.90
23259;DHT22;11798;51.528;7.240;2023-10-19T05:46:18;13.90;99.90
23259;DHT22;11798;51.528;7.240;2023-10-19T05:48:47;13.90;99.90
23259;DHT22;11798;51.528;7.240;2023-10-19T05:51:14;13.80;99.90
23259;DHT22;11798;51.528;7.240;2023-10-19T05:53:40;13.80;99.90
23259;DHT22;11798;51.528;7.240;2023-10-19T05:56:07;13.80;99.90
23259;DHT22;11798;51.528;7.240;2023-10-19T05:58:32;13.70;99.90
23259;DHT22;11798;51.528;7.240;2023-10-19T06:00:59;13.70;99.90
23259;DHT22;11798;51.528;7.240;2023-10-19T06:03:24;13.70;99.90
23259;DHT22;11798;51.528;7.240;2023-10-19T06:05:50;13.70;99.90
23259;DHT22;11798;51.528;7.240;2023-10-19T06:08:15;13.70;99.90
23259;DHT22;11798;51.528;7.240;2023-10-19T06:10:41;13.60;99.90
23259;DHT22;11798;51.528;7.240;2023-10-19T06:13:07;13.60;99.90
23259;DHT22;11798;51.528;7.240;2023-10-19T06:15:35;13.60;99.90
23259;DHT22;11798;51.528;7.240;2023-10-19T06:18:01;13.60;99.90
23259;DHT22;11798;51.528;7.240;2023-10-19T06:20:26;13.50;99.90
23259;DHT22;11798;51.528;7.240;2023-10-19T06:22:53;13.50;99.90
23259;DHT22;11798;51.528;7.240;2023-10-19T06:25:22;13.50;99.90
23259;DHT22;11798;51.528;7.240;2023-10-19T06:27:48;13.60;99.90
23259;DHT22;11798;51.528;7.240;2023-10-19T06:30:15;13.60;99.90
23259;DHT22;11798;51.528;7.240;2023-10-19T06:32:52;13.60;99.90
23259;DHT22;11798;51.528;7.240;2023-10-19T06:35:19;13.70;99.90
23259;DHT22;11798;51.528;7.240;2023-10-19T06:37:45;13.70;99.90
23259;DHT22;11798;51.528;7.240;2023-10-19T06:40:11;13.70;99.90
23259;DHT22;11798;51.528;7.240;2023-10-19T06:42:43;13.70;99.90
23259;DHT22;11798;51.528;7.240;2023-10-19T06:45:10;13.70;99.90
23259;DHT22;11798;51.528;7.240;2023-10-19T06:47:43;13.70;99.90
23259;DHT22;11798;51.528;7.240;2023-10-19T06:50:10;13.70;99.90
23259;DHT22;11798;51.528;7.240;2023-10-19T06:52:39;13.70;99.90
23259;DHT22;11798;51.528;7.240;2023-10-19T06:55:07;13.80;99.90
23259;DHT22;11798;51.528;7.240;2023-10-19T06:57:53;13.80;99.90
23259;DHT22;11798;51.528;7.240;2023-10-19T07:00:23;13.80;99.90
23259;DHT22;11798;51.528;7.240;2023-10-19T07:02:53;13.80;99.90
23259;DHT22;11798;51.528;7.240;2023-10-19T07:05:20;13.90;99.90
23259;DHT22;11798;51.528;7.240;2023-10-19T07:07:48;13.90;99.90
23259;DHT22;11798;51.528;7.240;2023-10-19T07:10:15;13.90;99.90
23259;DHT22;11798;51.528;7.240;2023-10-19T07:15:14;13.90;99.90
23259;DHT22;11798;51.528;7.240;2023-10-19T07:17:44;14.00;99.90
23259;DHT22;11798;51.528;7.240;2023-10-19T07:20:12;14.00;99.90
23259;DHT22;11798;51.528;7.240;2023-10-19T07:23:01;14.00;99.90
23259;DHT22;11798;51.528;7.240;2023-10-19T07:25:44;14.00;99.90
23259;DHT22;11798;51.528;7.240;2023-10-19T07:28:14;14.00;99.90
23259;DHT22;11798;51.528;7.240;2023-10-19T07:30:44;14.00;99.90
23259;DHT22;11798;51.528;7.240;2023-10-19T07:33:10;14.00;99.90
23259;DHT22;11798;51.528;7.240;2023-10-19T07:35:42;14.10;99.90
23259;DHT22;11798;51.528;7.240;2023-10-19T07:38:09;14.10;99.90
23259;DHT22;11798;51.528;7.240;2023-10-19T07:40:35;14.20;99.90
23259;DHT22;11798;51.528;7.240;2023-10-19T07:43:01;14.20;99.90
23259;DHT22;11798;51.528;7.240;2023-10-19T07:45:29;14.20;99.90
23259;DHT22;11798;51.528;7.240;2023-10-19T07:47:57;14.20;99.90
23259;DHT22;11798;51.528;7.240;2023-10-19T07:50:23;14.20;99.90
23259;DHT22;11798;51.528;7.240;2023-10-19T07:52:53;14.30;99.90
23259;DHT22;11798;51.528;7.240;2023-10-19T07:55:21;14.30;99.90
23259;DHT22;11798;51.528;7.240;2023-10-19T07:57:51;14.30;99.90
23259;DHT22;11798;51.528;7.240;2023-10-19T08:00:18;14.30;99.90
23259;DHT22;11798;51.528;7.240;2023-10-19T08:02:44;14.40;99.90
23259;DHT22;11798;51.528;7.240;2023-10-19T08:05:13;14.40;99.90
23259;DHT22;11798;51.528;7.240;2023-10-19T08:07:39;14.50;99.90
23259;DHT22;11798;51.528;7.240;2023-10-19T08:10:10;14.40;99.90
23259;DHT22;11798;51.528;7.240;2023-10-19T08:12:38;14.50;99.90
23259;DHT22;11798;51.528;7.240;2023-10-19T08:15:04;14.60;99.90
23259;DHT22;11798;51.528;7.240;2023-10-19T08:17:32;14.60;99.90
23259;DHT22;11798;51.528;7.240;2023-10-19T08:19:59;14.70;99.90
23259;DHT22;11798;51.528;7.240;2023-10-19T08:22:28;14.70;99.90
23259;DHT22;11798;51.528;7.240;2023-10-19T08:24:54;14.70;99.90
23259;DHT22;11798;51.528;7.240;2023-10-19T08:27:20;14.80;99.90
23259;DHT22;11798;51.528;7.240;2023-10-19T08:29:46;14.80;99.90
23259;DHT22;11798;51.528;7.240;2023-10-19T08:32:12;14.80;99.90
23259;DHT22;11798;51.528;7.240;2023-10-19T08:37:07;14.90;99.90
23259;DHT22;11798;51.528;7.240;2023-10-19T08:39:33;14.90;99.90
23259;DHT22;11798;51.528;7.240;2023-10-19T08:42:03;14.90;99.90
23259;DHT22;11798;51.528;7.240;2023-10-19T08:44:29;14.90;99.90
23259;DHT22;11798;51.528;7.240;2023-10-19T08:46:56;14.90;99.90
23259;DHT22;11798;51.528;7.240;2023-10-19T08:49:23;15.00;99.90
23259;DHT22;11798;51.528;7.240;2023-10-19T08:51:49;15.00;99.90
23259;DHT22;11798;51.528;7.240;2023-10-19T08:54:16;15.00;99.90
23259;DHT22;11798;51.528;7.240;2023-10-19T08:56:43;15.10;99.90
23259;DHT22;11798;51.528;7.240;2023-10-19T08:59:10;15.10;99.90
23259;DHT22;11798;51.528;7.240;2023-10-19T09:01:37;15.20;99.90
23259;DHT22;11798;51.528;7.240;2023-10-19T09:04:03;15.20;99.90
23259;DHT22;11798;51.528;7.240;2023-10-19T09:06:33;15.30;99.90
23259;DHT22;11798;51.528;7.240;2023-10-19T09:09:10;15.40;99.90
23259;DHT22;11798;51.528;7.240;2023-10-19T09:11:43;15.40;99.90
23259;DHT22;11798;51.528;7.240;2023-10-19T09:14:08;15.40;99.90
23259;DHT22;11798;51.528;7.240;2023-10-19T09:16:38;15.50;99.90
23259;DHT22;11798;51.528;7.240;2023-10-19T09:19:04;15.60;99.90
23259;DHT22;11798;51.528;7.240;2023-10-19T09:21:31;15.60;99.90
23259;DHT22;11798;51.528;7.240;2023-10-19T09:23:58;15.70;99.90
23259;DHT22;11798;51.528;7.240;2023-10-19T09:26:24;15.70;99.90
23259;DHT22;11798;51.528;7.240;2023-10-19T09:28:51;15.80;99.90
23259;DHT22;11798;51.528;7.240;2023-10-19T09:31:18;15.80;99.90
23259;DHT22;11798;51.528;7.240;2023-10-19T09:33:47;15.80;99.90
23259;DHT22;11798;51.528;7.240;2023-10-19T09:36:14;15.80;99.90
23259;DHT22;11798;51.528;7.240;2023-10-19T09:38:50;15.90;99.90
23259;DHT22;11798;51.528;7.240;2023-10-19T09:41:21;16.00;99.90
23259;DHT22;11798;51.528;7.240;2023-10-19T09:43:50;16.10;99.90
23259;DHT22;11798;51.528;7.240;2023-10-19T09:46:31;16.30;99.90
23259;DHT22;11798;51.528;7.240;2023-10-19T09:48:57;16.40;99.90
23259;DHT22;11798;51.528;7.240;2023-10-19T09:51:24;16.50;99.90
23259;DHT22;11798;51.528;7.240;2023-10-19T09:56:55;16.60;99.90
23259;DHT22;11798;51.528;7.240;2023-10-19T09:59:35;16.80;99.90
23259;DHT22;11798;51.528;7.240;2023-10-19T10:02:09;16.90;99.90
23259;DHT22;11798;51.528;7.240;2023-10-19T10:04:38;16.90;99.90
23259;DHT22;11798;51.528;7.240;2023-10-19T10:07:06;16.90;99.90
23259;DHT22;11798;51.528;7.240;2023-10-19T10:09:43;16.90;99.90
23259;DHT22;11798;51.528;7.240;2023-10-19T10:12:25;17.00;99.90
23259;DHT22;11798;51.528;7.240;2023-10-19T10:17:27;17.20;99.90
23259;DHT22;11798;51.528;7.240;2023-10-19T10:22:44;17.00;99.90
23259;DHT22;11798;51.528;7.240;2023-10-19T10:25:26;16.90;99.90
23259;DHT22;11798;51.528;7.240;2023-10-19T10:27:56;17.00;99.90
23259;DHT22;11798;51.528;7.240;2023-10-19T10:30:22;17.10;99.90
23259;DHT22;11798;51.528;7.240;2023-10-19T10:32:50;17.20;99.90
23259;DHT22;11798;51.528;7.240;2023-10-19T10:38:03;17.40;99.90
23259;DHT22;11798;51.528;7.240;2023-10-19T10:40:31;17.50;99.90
23259;DHT22;11798;51.528;7.240;2023-10-19T10:43:07;17.50;99.90
23259;DHT22;11798;51.528;7.240;2023-10-19T10:45:32;17.60;99.90
23259;DHT22;11798;51.528;7.240;2023-10-19T10:47:58;17.60;99.90
23259;DHT22;11798;51.528;7.240;2023-10-19T10:50:26;17.60;99.90
23259;DHT22;11798;51.528;7.240;2023-10-19T10:52:54;17.60;99.90
23259;DHT22;11798;51.528;7.240;2023-10-19T10:55:23;17.60;99.90
23259;DHT22;11798;51.528;7.240;2023-10-19T10:57:49;17.60;99.90
23259;DHT22;11798;51.528;7.240;2023-10-19T11:00:15;17.70;99.90
23259;DHT22;11798;51.528;7.240;2023-10-19T11:02:45;17.80;99.90
23259;DHT22;11798;51.528;7.240;2023-10-19T11:05:16;17.90;99.90
23259;DHT22;11798;51.528;7.240;2023-10-19T11:08:12;17.90;99.90
23259;DHT22;11798;51.528;7.240;2023-10-19T11:10:47;18.00;99.90
23259;DHT22;11798;51.528;7.240;2023-10-19T11:13:15;18.00;99.90
23259;DHT22;11798;51.528;7.240;2023-10-19T11:15:51;18.10;99.90
23259;DHT22;11798;51.528;7.240;2023-10-19T11:18:38;18.10;99.90
23259;DHT22;11798;51.528;7.240;2023-10-19T11:21:09;18.10;99.90
23259;DHT22;11798;51.528;7.240;2023-10-19T11:23:41;18.10;99.90
23259;DHT22;11798;51.528;7.240;2023-10-19T11:26:09;18.20;99.90
23259;DHT22;11798;51.528;7.240;2023-10-19T11:28:36;18.10;99.90
23259;DHT22;11798;51.528;7.240;2023-10-19T11:31:26;18.10;99.90
23259;DHT22;11798;51.528;7.240;2023-10-19T11:33:54;18.10;99.90
23259;DHT22;11798;51.528;7.240;2023-10-19T11:36:24;18.10;99.90
23259;DHT22;11798;51.528;7.240;2023-10-19T11:38:51;18.00;99.90
23259;DHT22;11798;51.528;7.240;2023-10-19T11:41:17;18.00;99.90
23259;DHT22;11798;51.528;7.240;2023-10-19T11:43:47;18.00;99.90
23259;DHT22;11798;51.528;7.240;2023-10-19T11:46:13;17.90;99.90
23259;DHT22;11798;51.528;7.240;2023-10-19T11:48:40;17.80;99.90
23259;DHT22;11798;51.528;7.240;2023-10-19T11:51:08;17.80;99.90
23259;DHT22;11798;51.528;7.240;2023-10-19T11:53:37;17.80;99.90
23259;DHT22;11798;51.528;7.240;2023-10-19T11:56:04;17.80;99.90
23259;DHT22;11798;51.528;7.240;2023-10-19T11:58:31;17.80;99.90
23259;DHT22;11798;51.528;7.240;2023-10-19T12:00:58;17.90;99.90
23259;DHT22;11798;51.528;7.240;2023-10-19T12:03:24;17.90;99.90
23259;DHT22;11798;51.528;7.240;2023-10-19T12:05:51;17.90;99.90
23259;DHT22;11798;51.528;7.240;2023-10-19T12:08:18;17.80;99.90
23259;DHT22;11798;51.528;7.240;2023-10-19T12:10:44;17.70;99.90
23259;DHT22;11798;51.528;7.240;2023-10-19T12:13:10;17.70;99.90
23259;DHT22;11798;51.528;7.240;2023-10-19T12:15:35;17.70;99.90
23259;DHT22;11798;51.528;7.240;2023-10-19T12:18:01;17.70;99.90
23259;DHT22;11798;51.528;7.240;2023-10-19T12:20:31;17.80;99.90
23259;DHT22;11798;51.528;7.240;2023-10-19T12:22:57;17.80;99.90
23259;DHT22;11798;51.528;7.240;2023-10-19T12:25:24;17.90;99.90
23259;DHT22;11798;51.528;7.240;2023-10-19T12:27:58;17.90;99.90
23259;DHT22;11798;51.528;7.240;2023-10-19T12:30:25;18.00;99.90
23259;DHT22;11798;51.528;7.240;2023-10-19T12:33:00;18.00;99.90
23259;DHT22;11798;51.528;7.240;2023-10-19T12:35:26;18.00;99.90
23259;DHT22;11798;51.528;7.240;2023-10-19T12:38:12;18.10;99.90
23259;DHT22;11798;51.528;7.240;2023-10-19T12:40:43;18.10;99.90
23259;DHT22;11798;51.528;7.240;2023-10-19T12:43:10;18.00;99.90
23259;DHT22;11798;51.528;7.240;2023-10-19T12:45:36;18.10;99.90
23259;DHT22;11798;51.528;7.240;2023-10-19T12:48:06;18.10;99.90
23259;DHT22;11798;51.528;7.240;2023-10-19T12:50:34;18.10;99.90
23259;DHT22;11798;51.528;7.240;2023-10-19T12:53:00;18.10;99.90
23259;DHT22;11798;51.528;7.240;2023-10-19T12:55:26;18.10;99.90
23259;DHT22;11798;51.528;7.240;2023-10-19T12:57:55;18.00;99.90
23259;DHT22;11798;51.528;7.240;2023-10-19T13:00:22;18.00;99.90
23259;DHT22;11798;51.528;7.240;2023-10-19T13:02:52;18.00;99.90
23259;DHT22;11798;51.528;7.240;2023-10-19T13:05:26;17.90;99.90
23259;DHT22;11798;51.528;7.240;2023-10-19T13:07:52;17.90;99.90
23259;DHT22;11798;51.528;7.240;2023-10-19T13:10:18;18.00;99.90
23259;DHT22;11798;51.528;7.240;2023-10-19T13:12:44;17.90;99.90
23259;DHT22;11798;51.528;7.240;2023-10-19T13:15:10;17.80;99.90
23259;DHT22;11798;51.528;7.240;2023-10-19T13:17:41;17.70;99.90
23259;DHT22;11798;51.528;7.240;2023-10-19T13:20:08;17.70;99.90
23259;DHT22;11798;51.528;7.240;2023-10-19T13:22:44;17.70;99.90
23259;DHT22;11798;51.528;7.240;2023-10-19T13:25:11;17.70;99.90
23259;DHT22;11798;51.528;7.240;2023-10-19T13:27:43;17.70;99.90
23259;DHT22;11798;51.528;7.240;2023-10-19T13:30:10;17.70;99.90
23259;DHT22;11798;51.528;7.240;2023-10-19T13:32:36;17.70;99.90
23259;DHT22;11798;51.528;7.240;2023-10-19T13:35:03;17.70;99.90
23259;DHT22;11798;51.528;7.240;2023-10-19T13:37:29;17.70;99.90
23259;DHT22;11798;51.528;7.240;2023-10-19T13:42:25;17.70;99.90
23259;DHT22;11798;51.528;7.240;2023-10-19T13:44:51;17.70;99.90
23259;DHT22;11798;51.528;7.240;2023-10-19T13:47:16;17.60;99.90
23259;DHT22;11798;51.528;7.240;2023-10-19T13:49:42;17.60;99.90
23259;DHT22;11798;51.528;7.240;2023-10-19T13:52:08;17.60;99.90
23259;DHT22;11798;51.528;7.240;2023-10-19T13:54:36;17.60;99.90
23259;DHT22;11798;51.528;7.240;2023-10-19T13:57:05;17.60;99.90
23259;DHT22;11798;51.528;7.240;2023-10-19T13:59:31;17.60;99.90
23259;DHT22;11798;51.528;7.240;2023-10-19T14:01:59;17.60;99.90
23259;DHT22;11798;51.528;7.240;2023-10-19T14:04:24;17.60;99.90
23259;DHT22;11798;51.528;7.240;2023-10-19T14:06:51;17.60;99.90
23259;DHT22;11798;51.528;7.240;2023-10-19T14:09:17;17.60;99.90
23259;DHT22;11798;51.528;7.240;2023-10-19T14:11:43;17.50;99.90
23259;DHT22;11798;51.528;7.240;2023-10-19T14:14:10;17.50;99.90
23259;DHT22;11798;51.528;7.240;2023-10-19T14:16:36;17.50;99.90
23259;DHT22;11798;51.528;7.240;2023-10-19T14:19:02;17.40;99.90
23259;DHT22;11798;51.528;7.240;2023-10-19T14:21:29;17.40;99.90
23259;DHT22;11798;51.528;7.240;2023-10-19T14:23:55;17.40;99.90
23259;DHT22;11798;51.528;7.240;2023-10-19T14:26:22;17.30;99.90
23259;DHT22;11798;51.528;7.240;2023-10-19T14:28:47;17.40;99.90
23259;DHT22;11798;51.528;7.240;2023-10-19T14:31:13;17.40;99.90
23259;DHT22;11798;51.528;7.240;2023-10-19T14:33:39;17.40;99.90
23259;DHT22;11798;51.528;7.240;2023-10-19T14:36:05;17.30;99.90
23259;DHT22;11798;51.528;7.240;2023-10-19T14:38:31;17.40;99.90
23259;DHT22;11798;51.528;7.240;2023-10-19T14:40:58;17.30;99.90
23259;DHT22;11798;51.528;7.240;2023-10-19T14:43:24;17.30;99.90
23259;DHT22;11798;51.528;7.240;2023-10-19T14:45:51;17.30;99.90
23259;DHT22;11798;51.528;7.240;2023-10-19T14:48:17;17.30;99.90
23259;DHT22;11798;51.528;7.240;2023-10-19T14:50:45;17.30;99.90
23259;DHT22;11798;51.528;7.240;2023-10-19T14:53:10;17.20;99.90
23259;DHT22;11798;51.528;7.240;2023-10-19T14:55:37;17.20;99.90
23259;DHT22;11798;51.528;7.240;2023-10-19T14:58:03;17.20;99.90
23259;DHT22;11798;51.528;7.240;2023-10-19T15:00:31;17.20;99.90
23259;DHT22;11798;51.528;7.240;2023-10-19T15:03:03;17.10;99.90
23259;DHT22;11798;51.528;7.240;2023-10-19T15:05:36;17.10;99.90
23259;DHT22;11798;51.528;7.240;2023-10-19T15:08:02;17.10;99.90
23259;DHT22;11798;51.528;7.240;2023-10-19T15:10:30;17.10;99.90
23259;DHT22;11798;51.528;7.240;2023-10-19T15:12:57;17.10;99.90
23259;DHT22;11798;51.528;7.240;2023-10-19T15:15:24;17.10;99.90
23259;DHT22;11798;51.528;7.240;2023-10-19T15:17:50;17.10;99.90
23259;DHT22;11798;51.528;7.240;2023-10-19T15:20:16;17.00;99.90
23259;DHT22;11798;51.528;7.240;2023-10-19T15:22:43;17.00;99.90
23259;DHT22;11798;51.528;7.240;2023-10-19T15:25:09;16.90;99.90
23259;DHT22;11798;51.528;7.240;2023-10-19T15:27:43;16.90;99.90
23259;DHT22;11798;51.528;7.240;2023-10-19T15:30:11;16.90;99.90
23259;DHT22;11798;51.528;7.240;2023-10-19T15:32:41;16.80;99.90
23259;DHT22;11798;51.528;7.240;2023-10-19T15:35:11;16.80;99.90
23259;DHT22;11798;51.528;7.240;2023-10-19T15:37:40;16.80;99.90
23259;DHT22;11798;51.528;7.240;2023-10-19T15:40:07;16.80;99.90
23259;DHT22;11798;51.528;7.240;2023-10-19T15:42:33;16.70;99.90
23259;DHT22;11798;51.528;7.240;2023-10-19T15:45:01;16.70;99.90
23259;DHT22;11798;51.528;7.240;2023-10-19T15:47:27;16.60;99.90
23259;DHT22;11798;51.528;7.240;2023-10-19T15:49:54;16.60;99.90
23259;DHT22;11798;51.528;7.240;2023-10-19T15:52:23;16.50;99.90
23259;DHT22;11798;51.528;7.240;2023-10-19T15:54:50;16.50;99.90
23259;DHT22;11798;51.528;7.240;2023-10-19T15:57:16;16.50;99.90
23259;DHT22;11798;51.528;7.240;2023-10-19T15:59:42;16.40;99.90